createdAt,value
2023-10-02T00:00:43.672Z,8.02
2023-10-02T00:03:13.639Z,8.32
2023-10-02T00:05:51.814Z,9.00
2023-10-02T00:08:33.072Z,8.30
2023-10-02T00:11:35.038Z,7.87
2023-10-02T00:14:21.565Z,9.27
2023-10-02T00:17:05.553Z,8.32
2023-10-02T00:19:38.280Z,6.78
2023-10-02T00:22:08.324Z,6.88
2023-10-02T00:24:40.239Z,8.80
2023-10-02T00:29:36.542Z,8.60
2023-10-02T00:32:12.348Z,10.95
2023-10-02T00:34:42.782Z,8.43
2023-10-02T00:37:14.132Z,8.65
2023-10-02T00:39:42.631Z,9.32
2023-10-02T00:42:30.254Z,9.70
2023-10-02T00:44:57.923Z,8.88
2023-10-02T00:47:46.593Z,9.52
2023-10-02T00:50:19.736Z,10.98
2023-10-02T00:52:56.971Z,12.65
2023-10-02T00:55:26.011Z,10.25
2023-10-02T00:57:57.582Z,12.10
2023-10-02T01:00:37.233Z,10.73
2023-10-02T01:03:06.993Z,11.25
2023-10-02T01:05:44.132Z,10.48
2023-10-02T01:08:24.885Z,11.68
2023-10-02T01:10:57.796Z,10.87
2023-10-02T01:13:29.847Z,13.60
2023-10-02T01:15:57.831Z,11.73
2023-10-02T01:18:28.945Z,12.05
2023-10-02T01:21:00.706Z,11.75
2023-10-02T01:26:01.787Z,10.32
2023-10-02T01:28:33.884Z,15.18
2023-10-02T01:33:49.038Z,10.27
2023-10-02T01:36:16.545Z,13.20
2023-10-02T01:38:47.572Z,12.98
2023-10-02T01:41:16.443Z,11.07
2023-10-02T01:43:46.834Z,12.05
2023-10-02T01:46:18.979Z,10.80
2023-10-02T01:48:50.149Z,11.38
2023-10-02T01:51:28.392Z,14.43
2023-10-02T01:53:57.968Z,13.35
2023-10-02T01:56:28.808Z,12.52
2023-10-02T01:59:09.676Z,9.65
2023-10-02T02:01:48.197Z,11.80
2023-10-02T02:04:16.167Z,12.32
2023-10-02T02:06:53.667Z,10.88
2023-10-02T02:09:24.634Z,12.27
2023-10-02T02:12:07.579Z,9.38
2023-10-02T02:14:42.227Z,11.32
2023-10-02T02:17:11.734Z,10.48
2023-10-02T02:19:46.161Z,10.65
2023-10-02T02:22:13.744Z,10.32
2023-10-02T02:24:41.288Z,12.77
2023-10-02T02:27:10.127Z,18.77
2023-10-02T02:29:37.796Z,12.05
2023-10-02T02:32:07.422Z,12.77
2023-10-02T02:34:35.121Z,12.02
2023-10-02T02:37:02.694Z,11.80
2023-10-02T02:39:30.386Z,16.17
2023-10-02T02:42:19.369Z,14.27
2023-10-02T02:44:50.841Z,13.15
2023-10-02T02:47:18.426Z,14.57
2023-10-02T02:49:51.633Z,15.05
2023-10-02T02:52:21.851Z,12.38
2023-10-02T02:54:49.981Z,12.77
2023-10-02T02:57:26.259Z,11.60
2023-10-02T03:00:14.324Z,12.98
2023-10-02T03:02:42.242Z,12.20
2023-10-02T03:05:12.490Z,16.35
2023-10-02T03:07:40.871Z,15.20
2023-10-02T03:10:12.879Z,15.38
2023-10-02T03:12:46.126Z,13.93
2023-10-02T03:15:19.115Z,14.93
2023-10-02T03:17:47.072Z,15.23
2023-10-02T03:20:24.537Z,19.30
2023-10-02T03:22:54.924Z,15.32
2023-10-02T03:25:42.211Z,15.98
2023-10-02T03:28:17.756Z,18.10
2023-10-02T03:30:48.517Z,19.63
2023-10-02T03:33:22.304Z,14.32
2023-10-02T03:35:59.188Z,17.17
2023-10-02T03:38:27.415Z,16.60
2023-10-02T03:40:56.651Z,18.10
2023-10-02T03:43:35.612Z,24.25
2023-10-02T03:46:07.346Z,15.80
2023-10-02T03:48:35.146Z,17.63
2023-10-02T03:51:05.442Z,16.23
2023-10-02T03:53:33.777Z,17.50
2023-10-02T03:56:22.690Z,14.25
2023-10-02T03:58:50.616Z,16.65
2023-10-02T04:01:28.129Z,15.73
2023-10-02T04:04:05.423Z,20.30
2023-10-02T04:06:35.470Z,16.63
2023-10-02T04:09:10.856Z,15.82
2023-10-02T04:11:39.614Z,18.38
2023-10-02T04:14:18.360Z,16.52
2023-10-02T04:16:53.103Z,15.30
2023-10-02T04:19:24.909Z,13.73
2023-10-02T04:21:54.028Z,13.93
2023-10-02T04:24:24.786Z,13.40
2023-10-02T04:26:55.470Z,15.80
2023-10-02T04:29:29.898Z,14.95
2023-10-02T04:32:15.858Z,13.23
2023-10-02T04:34:47.697Z,12.27
2023-10-02T04:40:15.239Z,17.17
2023-10-02T04:43:16.293Z,16.17
2023-10-02T04:45:45.408Z,15.73
2023-10-02T04:48:14.373Z,21.25
2023-10-02T04:50:46.941Z,15.98
2023-10-02T04:53:23.906Z,18.08
2023-10-02T04:56:08.616Z,18.65
2023-10-02T04:58:41.301Z,18.80
2023-10-02T05:01:30.830Z,17.45
2023-10-02T05:04:03.419Z,17.80
2023-10-02T05:06:53.869Z,16.40
2023-10-02T05:09:33.491Z,17.42
2023-10-02T05:12:05.647Z,13.70
2023-10-02T05:14:35.593Z,11.98
2023-10-02T05:17:19.287Z,19.27
2023-10-02T05:20:02.336Z,18.55
2023-10-02T05:22:31.977Z,17.90
2023-10-02T05:25:00.488Z,18.55
2023-10-02T05:27:31.619Z,17.98
2023-10-02T05:30:15.068Z,19.23
2023-10-02T05:32:43.551Z,17.02
2023-10-02T05:35:19.747Z,18.25
2023-10-02T05:37:53.091Z,14.88
2023-10-02T05:40:39.585Z,22.70
2023-10-02T05:43:18.646Z,19.85
2023-10-02T05:45:49.921Z,20.70
2023-10-02T05:48:28.929Z,20.60
2023-10-02T05:51:00.312Z,23.60
2023-10-02T05:53:30.758Z,17.77
2023-10-02T05:56:06.861Z,21.35
2023-10-02T05:58:37.846Z,26.58
2023-10-02T06:01:13.697Z,19.55
2023-10-02T06:03:42.826Z,19.00
2023-10-02T06:06:19.152Z,20.23
2023-10-02T06:08:50.684Z,20.52
2023-10-02T06:11:28.279Z,24.92
2023-10-02T06:14:10.319Z,21.15
2023-10-02T06:16:40.664Z,20.00
2023-10-02T06:19:14.201Z,26.23
2023-10-02T06:22:06.016Z,17.08
2023-10-02T06:24:33.777Z,22.00
2023-10-02T06:27:05.973Z,24.60
2023-10-02T06:29:36.517Z,19.40
2023-10-02T06:32:06.786Z,18.38
2023-10-02T06:34:44.502Z,19.95
2023-10-02T06:37:14.848Z,15.13
2023-10-02T06:39:43.511Z,16.25
2023-10-02T06:42:11.843Z,17.30
2023-10-02T06:44:42.288Z,24.88
2023-10-02T06:47:14.676Z,21.65
2023-10-02T06:49:44.978Z,18.40
2023-10-02T06:52:18.126Z,19.10
2023-10-02T06:54:47.278Z,19.05
2023-10-02T06:57:16.005Z,17.60
2023-10-02T06:59:52.584Z,25.60
2023-10-02T07:02:22.208Z,19.70
2023-10-02T07:04:50.480Z,20.20
2023-10-02T07:07:24.910Z,20.85
2023-10-02T07:09:53.039Z,18.77
2023-10-02T07:12:22.113Z,19.70
2023-10-02T07:14:50.230Z,22.25
2023-10-02T07:17:24.319Z,19.08
2023-10-02T07:19:52.075Z,17.00
2023-10-02T07:22:25.588Z,20.13
2023-10-02T07:24:56.767Z,17.75
2023-10-02T07:27:27.025Z,23.48
2023-10-02T07:29:58.774Z,22.95
2023-10-02T07:32:28.310Z,18.63
2023-10-02T07:34:57.136Z,16.73
2023-10-02T07:37:25.923Z,17.60
2023-10-02T07:40:01.388Z,16.92
2023-10-02T07:42:33.264Z,18.90
2023-10-02T07:45:13.577Z,19.15
2023-10-02T07:48:09.442Z,15.43
2023-10-02T07:50:40.433Z,18.40
2023-10-02T07:53:09.973Z,15.88
2023-10-02T07:55:40.326Z,18.58
2023-10-02T07:58:09.296Z,13.60
2023-10-02T08:00:42.085Z,19.40
2023-10-02T08:03:29.446Z,19.70
2023-10-02T08:05:58.437Z,16.50
2023-10-02T08:08:32.844Z,13.45
2023-10-02T08:11:07.714Z,16.63
2023-10-02T08:13:36.864Z,15.40
2023-10-02T08:16:13.161Z,17.75
2023-10-02T08:18:54.933Z,20.38
2023-10-02T08:21:35.060Z,16.05
2023-10-02T08:24:05.988Z,18.05
2023-10-02T08:26:39.906Z,15.90
2023-10-02T08:29:09.735Z,13.77
2023-10-02T08:31:44.203Z,14.32
2023-10-02T08:34:15.696Z,14.85
2023-10-02T08:36:43.390Z,13.82
2023-10-02T08:41:45.631Z,17.15
2023-10-02T08:44:14.294Z,14.50
2023-10-02T08:46:44.707Z,20.27
2023-10-02T08:49:14.062Z,13.53
2023-10-02T08:51:49.812Z,14.75
2023-10-02T08:54:20.142Z,12.55
2023-10-02T08:56:50.314Z,15.55
2023-10-02T08:59:19.358Z,13.63
2023-10-02T09:01:49.057Z,12.90
2023-10-02T09:04:24.349Z,18.10
2023-10-02T09:06:54.695Z,14.68
2023-10-02T09:09:28.025Z,15.43
2023-10-02T09:11:58.550Z,18.23
2023-10-02T09:14:40.676Z,17.83
2023-10-02T09:17:13.969Z,13.00
2023-10-02T09:19:48.114Z,13.07
2023-10-02T09:22:17.983Z,17.02
2023-10-02T09:24:58.999Z,14.98
2023-10-02T09:27:28.570Z,16.15
2023-10-02T09:30:14.940Z,12.73
2023-10-02T09:32:53.806Z,14.38
2023-10-02T09:36:31.346Z,13.77
2023-10-02T09:38:23.965Z,12.05
2023-10-02T09:40:57.905Z,18.48
2023-10-02T09:43:26.656Z,14.40
2023-10-02T09:45:56.916Z,18.10
2023-10-02T09:48:54.422Z,15.55
2023-10-02T09:51:27.669Z,11.27
2023-10-02T09:54:06.906Z,13.05
2023-10-02T09:56:53.186Z,12.57
2023-10-02T09:59:23.118Z,11.70
2023-10-02T10:02:41.328Z,11.27
2023-10-02T10:05:44.492Z,13.02
2023-10-02T10:08:29.988Z,12.75
2023-10-02T10:11:11.915Z,13.82
2023-10-02T10:13:47.855Z,15.00
2023-10-02T10:16:36.370Z,13.05
2023-10-02T10:19:28.319Z,10.25
2023-10-02T10:21:58.501Z,13.40
2023-10-02T10:24:52.639Z,11.63
2023-10-02T10:27:55.816Z,13.93
2023-10-02T10:30:48.002Z,12.73
2023-10-02T10:36:36.335Z,11.45
2023-10-02T10:39:28.864Z,14.40
2023-10-02T10:42:01.553Z,14.75
2023-10-02T10:44:34.996Z,13.55
2023-10-02T10:47:05.527Z,13.52
2023-10-02T10:49:55.043Z,12.93
2023-10-02T10:52:35.770Z,10.02
2023-10-02T10:55:33.359Z,12.88
2023-10-02T10:58:07.041Z,13.75
2023-10-02T11:00:43.028Z,14.32
2023-10-02T11:03:16.260Z,15.73
2023-10-02T11:05:44.811Z,13.73
2023-10-02T11:08:26.676Z,14.75
2023-10-02T11:11:20.361Z,14.68
2023-10-02T11:13:56.561Z,14.05
2023-10-02T11:16:38.806Z,18.15
2023-10-02T11:19:36.172Z,16.88
2023-10-02T11:22:17.798Z,16.67
2023-10-02T11:24:47.265Z,14.35
2023-10-02T11:27:16.377Z,14.32
2023-10-02T11:29:46.728Z,14.32
2023-10-02T11:32:24.881Z,14.15
2023-10-02T11:35:00.463Z,17.80
2023-10-02T11:37:29.720Z,17.83
2023-10-02T11:39:58.311Z,15.63
2023-10-02T11:42:25.795Z,17.35
2023-10-02T11:44:54.858Z,14.43
2023-10-02T11:47:22.389Z,13.23
2023-10-02T11:49:49.891Z,17.00
2023-10-02T11:52:19.990Z,13.25
2023-10-02T11:54:47.494Z,13.80
2023-10-02T11:57:15.819Z,13.90
2023-10-02T11:59:47.070Z,15.52
2023-10-02T12:02:15.009Z,14.80
2023-10-02T12:04:42.617Z,16.23
2023-10-02T12:07:11.201Z,13.57
2023-10-02T12:09:40.186Z,14.85
2023-10-02T12:12:07.834Z,15.38
2023-10-02T12:14:35.579Z,15.98
2023-10-02T12:17:03.125Z,16.85
2023-10-02T12:19:32.492Z,15.30
2023-10-02T12:22:08.676Z,12.15
2023-10-02T12:24:37.987Z,16.30
2023-10-02T12:27:11.885Z,15.77
2023-10-02T12:29:39.820Z,14.20
2023-10-02T12:32:11.612Z,12.75
2023-10-02T12:34:39.685Z,15.38
2023-10-02T12:37:07.604Z,14.75
2023-10-02T12:39:35.173Z,14.73
2023-10-02T12:42:02.704Z,13.98
2023-10-02T12:44:33.884Z,14.35
2023-10-02T12:47:03.608Z,13.80
2023-10-02T12:49:31.268Z,16.83
2023-10-02T12:52:00.261Z,13.95
2023-10-02T12:54:28.258Z,14.23
2023-10-02T12:56:55.787Z,13.77
2023-10-02T12:59:25.223Z,14.88
2023-10-02T13:01:54.160Z,18.02
2023-10-02T13:04:21.663Z,13.80
2023-10-02T13:06:49.142Z,17.70
2023-10-02T13:09:17.215Z,13.40
2023-10-02T13:11:46.119Z,18.38
2023-10-02T13:14:17.251Z,14.48
2023-10-02T13:16:47.220Z,14.07
2023-10-02T13:19:17.324Z,13.65
2023-10-02T13:21:46.060Z,12.70
2023-10-02T13:24:16.798Z,11.60
2023-10-02T13:26:44.971Z,13.38
2023-10-02T13:29:13.047Z,11.82
2023-10-02T13:31:40.862Z,15.10
2023-10-02T13:34:08.446Z,11.02
2023-10-02T13:36:38.472Z,10.13
2023-10-02T13:39:06.610Z,10.75
2023-10-02T13:41:36.102Z,11.68
2023-10-02T13:44:05.563Z,10.85
2023-10-02T13:46:36.329Z,9.50
2023-10-02T13:49:05.645Z,10.23
2023-10-02T13:51:33.722Z,10.20
2023-10-02T13:54:03.459Z,11.13
2023-10-02T13:56:34.392Z,11.90
2023-10-02T14:01:32.611Z,9.70
2023-10-02T14:04:00.538Z,9.10
2023-10-02T14:06:30.053Z,11.18
2023-10-02T14:08:58.102Z,12.32
2023-10-02T14:11:28.254Z,10.52
2023-10-02T14:13:58.451Z,12.25
2023-10-02T14:16:27.278Z,11.85
2023-10-02T14:18:57.683Z,9.65
2023-10-02T14:21:27.183Z,8.57
2023-10-02T14:23:55.883Z,11.02
2023-10-02T14:26:25.857Z,11.38
2023-10-02T14:28:56.674Z,10.82
2023-10-02T14:31:25.080Z,11.33
2023-10-02T14:33:52.589Z,9.60
2023-10-02T14:36:20.457Z,9.15
2023-10-02T14:38:48.826Z,14.07
2023-10-02T14:41:19.081Z,9.63
2023-10-02T14:43:47.740Z,14.75
2023-10-02T14:46:16.858Z,11.38
2023-10-02T14:48:46.772Z,9.98
2023-10-02T14:51:15.268Z,10.20
2023-10-02T14:53:42.966Z,10.18
2023-10-02T14:56:10.689Z,9.73
2023-10-02T14:58:42.111Z,10.32
2023-10-02T15:01:13.830Z,10.88
2023-10-02T15:03:44.519Z,10.55
2023-10-02T15:06:13.232Z,8.05
2023-10-02T15:08:41.412Z,9.32
2023-10-02T15:11:14.661Z,12.05
2023-10-02T15:13:43.653Z,10.13
2023-10-02T15:16:12.850Z,10.52
2023-10-02T15:18:40.862Z,8.70
2023-10-02T15:21:10.575Z,9.73
2023-10-02T15:23:38.871Z,9.93
2023-10-02T15:26:06.611Z,10.52
2023-10-02T15:28:34.306Z,9.77
2023-10-02T15:31:02.175Z,8.40
2023-10-02T15:33:33.025Z,9.88
2023-10-02T15:36:00.657Z,10.20
2023-10-02T15:38:31.139Z,9.20
2023-10-02T15:41:00.707Z,11.13
2023-10-02T15:43:28.259Z,9.20
2023-10-02T15:45:55.807Z,9.77
2023-10-02T15:48:23.948Z,10.70
2023-10-02T15:50:51.456Z,12.02
2023-10-02T15:53:19.234Z,7.88
2023-10-02T15:55:48.333Z,11.02
2023-10-02T15:58:16.076Z,10.85
2023-10-02T16:00:46.538Z,12.57
2023-10-02T16:03:14.229Z,9.43
2023-10-02T16:05:42.094Z,8.32
2023-10-02T16:08:10.132Z,11.10
2023-10-02T16:10:37.867Z,9.07
2023-10-02T16:13:07.358Z,10.25
2023-10-02T16:15:36.494Z,12.02
2023-10-02T16:18:07.012Z,10.13
2023-10-02T16:20:36.434Z,11.68
2023-10-02T16:23:04.235Z,13.25
2023-10-02T16:25:32.829Z,10.82
2023-10-02T16:28:01.225Z,12.88
2023-10-02T16:30:30.122Z,10.05
2023-10-02T16:32:58.864Z,11.02
2023-10-02T16:35:31.701Z,10.00
2023-10-02T16:38:01.278Z,11.38
2023-10-02T16:40:29.848Z,14.20
2023-10-02T16:42:58.129Z,16.48
2023-10-02T16:45:26.028Z,11.63
2023-10-02T16:47:56.946Z,12.98
2023-10-02T16:50:29.780Z,15.77
2023-10-02T16:52:58.302Z,12.45
2023-10-02T16:55:28.418Z,12.68
2023-10-02T16:57:57.412Z,18.88
2023-10-02T17:00:27.930Z,13.57
2023-10-02T17:02:58.969Z,15.98
2023-10-02T17:05:27.322Z,12.37
2023-10-02T17:07:55.789Z,14.68
2023-10-02T17:10:24.929Z,16.08
2023-10-02T17:12:55.312Z,16.35
2023-10-02T17:15:23.176Z,14.43
2023-10-02T17:17:51.469Z,13.77
2023-10-02T17:20:23.609Z,15.10
2023-10-02T17:22:51.717Z,17.63
2023-10-02T17:25:25.686Z,17.42
2023-10-02T17:27:54.593Z,16.80
2023-10-02T17:30:23.462Z,13.45
2023-10-02T17:32:51.412Z,14.63
2023-10-02T17:35:20.596Z,16.08
2023-10-02T17:37:48.799Z,16.48
2023-10-02T17:40:16.777Z,13.35
2023-10-02T17:42:44.858Z,11.73
2023-10-02T17:45:13.422Z,20.83
2023-10-02T17:47:43.412Z,15.40
2023-10-02T17:50:13.226Z,12.10
2023-10-02T17:52:42.673Z,12.60
2023-10-02T17:55:11.128Z,12.07
2023-10-02T17:57:38.761Z,13.13
2023-10-02T18:00:19.005Z,11.90
2023-10-02T18:02:47.813Z,13.52
2023-10-02T18:05:16.372Z,12.27
2023-10-02T18:07:46.701Z,12.82
2023-10-02T18:10:15.495Z,14.73
2023-10-02T18:12:43.204Z,12.32
2023-10-02T18:15:14.287Z,10.65
2023-10-02T18:17:42.559Z,11.63
2023-10-02T18:20:12.374Z,15.43
2023-10-02T18:22:41.055Z,13.13
2023-10-02T18:25:11.523Z,15.77
2023-10-02T18:27:39.161Z,16.90
2023-10-02T18:30:08.401Z,13.32
2023-10-02T18:32:36.098Z,12.20
2023-10-02T18:35:05.445Z,11.55
2023-10-02T18:37:34.242Z,12.90
2023-10-02T18:40:08.999Z,10.73
2023-10-02T18:42:38.900Z,11.75
2023-10-02T18:45:08.015Z,13.18
2023-10-02T18:47:36.201Z,14.05
2023-10-02T18:50:05.229Z,14.15
2023-10-02T18:52:35.551Z,16.48
2023-10-02T18:55:03.499Z,13.80
2023-10-02T18:57:31.066Z,14.18
2023-10-02T19:00:00.013Z,13.25
2023-10-02T19:02:30.163Z,15.63
2023-10-02T19:05:00.058Z,13.10
2023-10-02T19:07:27.530Z,14.48
2023-10-02T19:09:55.020Z,16.40
2023-10-02T19:12:22.586Z,16.35
2023-10-02T19:14:51.270Z,20.98
2023-10-02T19:17:23.502Z,19.55
2023-10-02T19:19:51.260Z,15.48
2023-10-02T19:22:19.393Z,17.13
2023-10-02T19:24:47.465Z,17.63
2023-10-02T19:27:14.961Z,17.58
2023-10-02T19:29:42.615Z,15.60
2023-10-02T19:32:12.331Z,17.50
2023-10-02T19:34:41.549Z,20.67
2023-10-02T19:37:09.052Z,16.55
2023-10-02T19:39:36.616Z,21.23
2023-10-02T19:42:04.750Z,17.83
2023-10-02T19:44:32.366Z,13.95
2023-10-02T19:47:00.809Z,18.65
2023-10-02T19:49:28.296Z,20.38
2023-10-02T19:51:57.553Z,17.90
2023-10-02T19:54:25.252Z,20.67
2023-10-02T19:56:52.748Z,18.63
2023-10-02T19:59:20.407Z,18.88
2023-10-02T20:01:49.868Z,20.63
2023-10-02T20:04:17.385Z,21.40
2023-10-02T20:06:44.895Z,14.90
2023-10-02T20:09:13.822Z,17.50
2023-10-02T20:11:41.351Z,16.00
2023-10-02T20:14:09.114Z,15.65
2023-10-02T20:16:44.465Z,18.67
2023-10-02T20:19:13.544Z,21.70
2023-10-02T20:21:43.328Z,17.83
2023-10-02T20:24:11.254Z,15.18
2023-10-02T20:26:40.259Z,13.90
2023-10-02T20:29:08.812Z,12.38
2023-10-02T20:31:36.534Z,13.95
2023-10-02T20:34:04.101Z,13.27
2023-10-02T20:36:31.696Z,15.07
2023-10-02T20:39:00.908Z,13.68
2023-10-02T20:41:28.676Z,16.77
2023-10-02T20:43:57.442Z,18.42
2023-10-02T20:46:25.025Z,17.77
2023-10-02T20:48:52.657Z,21.38
2023-10-02T20:51:20.111Z,15.15
2023-10-02T20:53:48.371Z,18.13
2023-10-02T20:56:17.464Z,22.25
2023-10-02T20:58:45.254Z,15.73
2023-10-02T21:01:14.729Z,21.25
2023-10-02T21:03:42.501Z,22.58
2023-10-02T21:06:10.128Z,20.33
2023-10-02T21:08:37.788Z,21.65
2023-10-02T21:11:05.302Z,18.33
2023-10-02T21:13:32.741Z,18.52
2023-10-02T21:16:00.326Z,17.90
2023-10-02T21:18:31.773Z,18.00
2023-10-02T21:20:59.383Z,16.25
2023-10-02T21:23:26.870Z,20.05
2023-10-02T21:25:54.456Z,19.00
2023-10-02T21:28:21.937Z,21.02
2023-10-02T21:30:49.591Z,14.77
2023-10-02T21:33:17.176Z,18.83
2023-10-02T21:35:46.023Z,15.00
2023-10-02T21:38:14.886Z,19.15
2023-10-02T21:40:42.385Z,20.98
2023-10-02T21:43:09.827Z,21.75
2023-10-02T21:45:37.389Z,16.00
2023-10-02T21:48:05.767Z,13.60
2023-10-02T21:50:33.407Z,10.73
2023-10-02T21:53:02.261Z,14.60
2023-10-02T21:55:30.859Z,14.23
2023-10-02T21:57:59.265Z,17.52
2023-10-02T22:00:36.484Z,17.40
2023-10-02T22:03:07.589Z,15.65
2023-10-02T22:05:35.396Z,14.90
2023-10-02T22:08:04.768Z,13.93
2023-10-02T22:10:32.317Z,15.75
2023-10-02T22:12:59.882Z,12.77
2023-10-02T22:15:30.285Z,17.35
2023-10-02T22:17:58.033Z,13.65
2023-10-02T22:20:26.749Z,16.48
2023-10-02T22:22:54.347Z,15.57
2023-10-02T22:25:23.226Z,16.67
2023-10-02T22:27:51.021Z,18.70
2023-10-02T22:30:20.021Z,13.48
2023-10-02T22:32:47.697Z,14.38
2023-10-02T22:35:16.232Z,14.90
2023-10-02T22:37:44.050Z,15.48
2023-10-02T22:40:20.905Z,14.38
2023-10-02T22:42:51.541Z,16.30
2023-10-02T22:45:20.387Z,19.58
2023-10-02T22:47:48.827Z,13.27
2023-10-02T22:50:17.433Z,13.13
2023-10-02T22:52:46.808Z,16.23
2023-10-02T22:55:14.565Z,14.98
2023-10-02T22:57:42.016Z,16.85
2023-10-02T23:00:17.120Z,18.50
2023-10-02T23:02:45.642Z,14.85
2023-10-02T23:05:13.423Z,15.57
2023-10-02T23:07:41.367Z,15.20
2023-10-02T23:10:11.615Z,16.73
2023-10-02T23:12:39.199Z,13.82
2023-10-02T23:15:08.661Z,13.35
2023-10-02T23:17:38.102Z,14.73
2023-10-02T23:20:06.748Z,11.55
2023-10-02T23:22:35.279Z,15.80
2023-10-02T23:25:04.880Z,15.90
2023-10-02T23:27:33.688Z,15.93
2023-10-02T23:30:01.224Z,13.25
2023-10-02T23:32:29.870Z,16.60
2023-10-02T23:34:59.592Z,15.45
2023-10-02T23:37:27.085Z,13.43
2023-10-02T23:39:54.574Z,17.85
2023-10-02T23:42:22.056Z,19.85
2023-10-02T23:44:51.612Z,19.02
2023-10-02T23:47:20.082Z,20.52
2023-10-02T23:49:48.628Z,18.27
2023-10-02T23:52:17.578Z,18.05
2023-10-02T23:54:46.879Z,19.15
2023-10-02T23:57:14.781Z,13.90
2023-10-02T23:59:42.915Z,15.27
